Time;durP1;ratioP1;P1;durP2;ratioP2;P2;SDS_P1;SDS_P2;PMS_P1;PMS_P2;Temp;Humidity;BMP_temperature;BMP_pressure;BME280_temperature;BME280_humidity;BME280_pressure;Samples;Min_cycle;Max_cycle;Signal;HPM_P1;HPM_P2
2021/08/29 00:01:29;;;;;;;10.23;8.13;;;25.30;58.20;;;;;;4165694;28;20384;-52
2021/08/29 00:03:32;;;;;;;8.50;7.35;;;25.30;58.40;;;;;;4165789;28;20073;-51
2021/08/29 00:05:34;;;;;;;10.75;7.28;;;25.30;58.20;;;;;;4165463;28;20053;-49
2021/08/29 00:07:36;;;;;;;10.10;7.97;;;25.30;58.10;;;;;;4165713;28;20062;-53
2021/08/29 00:09:38;;;;;;;11.55;7.68;;;25.40;58.10;;;;;;4165725;28;20056;-52
2021/08/29 00:11:42;;;;;;;11.38;8.05;;;25.30;58.40;;;;;;4165729;28;20046;-51
2021/08/29 00:13:44;;;;;;;12.95;9.10;;;25.30;58.20;;;;;;4165765;28;20097;-50
2021/08/29 00:15:46;;;;;;;10.43;7.65;;;25.30;58.00;;;;;;4165655;28;20041;-51
2021/08/29 00:17:48;;;;;;;10.30;7.40;;;25.30;58.20;;;;;;4165616;28;20050;-49
2021/08/29 00:19:51;;;;;;;11.93;7.55;;;25.20;58.30;;;;;;4164612;28;20046;-53
2021/08/29 00:21:53;;;;;;;13.07;7.35;;;25.20;58.40;;;;;;4165300;28;20045;-53
2021/08/29 00:23:55;;;;;;;12.52;7.90;;;25.20;58.20;;;;;;4165329;28;20049;-53
2021/08/29 00:25:57;;;;;;;8.20;7.35;;;25.20;58.50;;;;;;4165474;28;20056;-54
2021/08/29 00:27:59;;;;;;;11.43;8.70;;;25.10;58.60;;;;;;4165293;28;20045;-54
2021/08/29 00:30:01;;;;;;;8.63;7.50;;;25.20;58.20;;;;;;4165392;28;20061;-53
2021/08/29 00:32:03;;;;;;;12.05;7.43;;;25.20;58.60;;;;;;4165312;28;20097;-52
2021/08/29 00:34:05;;;;;;;10.73;7.63;;;25.20;58.30;;;;;;4165376;28;20110;-50
2021/08/29 00:36:07;;;;;;;11.02;7.60;;;25.20;58.50;;;;;;4165522;28;20034;-53
2021/08/29 00:38:09;;;;;;;7.53;6.75;;;25.20;58.30;;;;;;4165502;28;20042;-53
2021/08/29 00:40:14;;;;;;;8.38;6.63;;;25.10;58.40;;;;;;4165053;28;20069;-53
2021/08/29 00:42:16;;;;;;;8.55;6.82;;;25.20;58.60;;;;;;4165401;28;20097;-54
2021/08/29 00:44:21;;;;;;;12.30;7.45;;;25.10;58.30;;;;;;4165234;28;20097;-51
2021/08/29 00:46:24;;;;;;;12.00;8.18;;;25.20;58.20;;;;;;4165459;28;20037;-52
2021/08/29 00:48:26;;;;;;;9.35;6.53;;;25.20;58.20;;;;;;4165241;28;20046;-54
2021/08/29 00:50:28;;;;;;;7.93;6.43;;;25.20;58.40;;;;;;4165312;28;20042;-54
2021/08/29 00:52:31;;;;;;;11.93;7.15;;;25.10;58.20;;;;;;4180520;28;20100;-53
2021/08/29 00:54:34;;;;;;;9.40;7.32;;;25.10;58.10;;;;;;4164782;28;20042;-54
2021/08/29 00:56:36;;;;;;;9.35;7.07;;;25.20;58.30;;;;;;4164896;28;20098;-52
2021/08/29 00:58:39;;;;;;;10.10;7.57;;;25.10;58.20;;;;;;4164760;28;20069;-53
2021/08/29 01:00:42;;;;;;;8.88;7.78;;;25.00;58.60;;;;;;4165168;28;20042;-51
2021/08/29 01:02:46;;;;;;;10.68;8.13;;;25.00;58.40;;;;;;4164928;28;20069;-50
2021/08/29 01:05:11;;;;;;;9.25;7.35;;;25.10;58.20;;;;;;4164318;28;20041;-49
2021/08/29 01:07:21;;;;;;;8.45;7.32;;;25.20;58.10;;;;;;4164795;28;20097;-54
2021/08/29 01:09:24;;;;;;;10.48;6.95;;;25.10;58.20;;;;;;4165160;28;20060;-53
2021/08/29 01:11:27;;;;;;;8.85;7.60;;;25.10;58.20;;;;;;4164695;28;20052;-54
2021/08/29 01:13:33;;;;;;;7.57;6.50;;;25.00;58.30;;;;;;4164782;28;20045;-51
2021/08/29 01:15:37;;;;;;;11.40;7.00;;;25.10;58.50;;;;;;4164824;28;20065;-51
2021/08/29 01:17:43;;;;;;;7.68;6.43;;;25.00;58.40;;;;;;4164903;28;20089;-54
2021/08/29 01:20:03;;;;;;;9.43;7.18;;;25.00;58.30;;;;;;4164022;28;20049;-52
2021/08/29 01:22:07;;;;;;;10.88;7.43;;;25.00;58.40;;;;;;4164919;28;20097;-53
2021/08/29 01:24:12;;;;;;;9.73;6.95;;;25.00;58.60;;;;;;4164924;28;20061;-52
2021/08/29 01:26:50;;;;;;;10.35;6.75;;;25.10;58.20;;;;;;4164199;28;20054;-49
2021/08/29 01:28:57;;;;;;;9.02;6.60;;;25.10;58.20;;;;;;4164909;28;20105;-51
2021/08/29 01:30:59;;;;;;;7.90;6.43;;;25.20;58.00;;;;;;4164700;28;20080;-52
2021/08/29 01:33:01;;;;;;;9.10;7.15;;;25.20;58.00;;;;;;4164585;28;20053;-52
2021/08/29 01:35:04;;;;;;;11.27;7.20;;;25.30;57.90;;;;;;4164383;28;20046;-55
2021/08/29 01:37:08;;;;;;;8.02;6.90;;;25.20;58.00;;;;;;4163848;28;20068;-53
2021/08/29 01:39:10;;;;;;;;;;;25.20;57.80;;;;;;4164933;28;20070;-55
2021/08/29 01:41:15;;;;;;;7.90;5.85;;;25.20;58.00;;;;;;4164571;28;19932;-55
2021/08/29 01:43:17;;;;;;;9.73;6.53;;;25.10;58.00;;;;;;4164746;28;20041;-52
2021/08/29 01:45:20;;;;;;;8.30;6.82;;;25.10;58.10;;;;;;4164702;28;20080;-54
2021/08/29 01:47:22;;;;;;;8.52;6.95;;;25.10;58.30;;;;;;4164877;28;20105;-55
2021/08/29 01:49:25;;;;;;;6.97;5.90;;;25.10;58.50;;;;;;4164778;28;20073;-53
2021/08/29 01:51:27;;;;;;;9.05;6.65;;;25.10;58.10;;;;;;4164633;28;20101;-54
2021/08/29 01:53:29;;;;;;;7.03;6.25;;;25.10;58.00;;;;;;4164207;28;20042;-57
2021/08/29 01:55:31;;;;;;;8.45;6.18;;;25.00;57.90;;;;;;4163871;28;20044;-57
2021/08/29 01:57:33;;;;;;;10.23;6.15;;;25.00;58.30;;;;;;4163998;28;20105;-57
2021/08/29 01:59:35;;;;;;;8.15;6.15;;;25.00;58.30;;;;;;4163949;28;20042;-57
2021/08/29 02:01:38;;;;;;;10.40;6.80;;;25.00;58.00;;;;;;4164011;28;20056;-56
2021/08/29 02:03:42;;;;;;;12.67;6.90;;;25.00;58.00;;;;;;4164005;28;20098;-56
2021/08/29 02:05:48;;;;;;;7.45;5.88;;;24.90;58.30;;;;;;4164076;28;20295;-58
2021/08/29 02:07:56;;;;;;;8.77;6.82;;;24.90;58.20;;;;;;4163964;28;20042;-57
2021/08/29 02:10:08;;;;;;;7.38;6.28;;;24.90;57.70;;;;;;4164143;28;20042;-58
2021/08/29 02:12:11;;;;;;;8.68;6.43;;;24.90;58.00;;;;;;4163878;28;20076;-57
2021/08/29 02:14:27;;;;;;;9.93;7.35;;;24.90;58.60;;;;;;4163913;28;20097;-58
2021/08/29 02:16:35;;;;;;;8.00;6.38;;;24.90;57.70;;;;;;4164228;28;20056;-57
2021/08/29 02:18:41;;;;;;;7.78;6.65;;;24.90;58.20;;;;;;4166639;28;20049;-58
2021/08/29 02:20:47;;;;;;;6.55;5.95;;;24.90;58.50;;;;;;4166856;28;20054;-58
2021/08/29 02:22:49;;;;;;;10.73;6.82;;;24.90;58.30;;;;;;4166781;28;20046;-58
2021/08/29 02:24:52;;;;;;;10.18;6.32;;;24.90;58.30;;;;;;4166659;28;20056;-58
2021/08/29 02:26:55;;;;;;;7.13;6.10;;;24.90;58.00;;;;;;4166712;28;20456;-58
2021/08/29 02:28:57;;;;;;;9.57;5.65;;;24.90;58.20;;;;;;4166824;28;20041;-57
2021/08/29 02:31:01;;;;;;;8.40;5.95;;;24.90;57.90;;;;;;4166523;28;20050;-58
2021/08/29 02:33:03;;;;;;;14.27;6.88;;;24.90;58.20;;;;;;4166325;28;20101;-56
2021/08/29 02:35:06;;;;;;;11.30;6.03;;;24.90;57.90;;;;;;4166569;28;20048;-56
2021/08/29 02:37:10;;;;;;;7.03;6.32;;;25.00;57.90;;;;;;4166353;28;20049;-57
2021/08/29 02:39:14;;;;;;;6.85;5.75;;;25.00;58.00;;;;;;4166356;28;20053;-57
2021/08/29 02:41:17;;;;;;;9.55;6.65;;;25.10;58.00;;;;;;4166524;28;20042;-56
2021/08/29 02:43:20;;;;;;;8.30;6.13;;;25.00;57.60;;;;;;4166421;28;20054;-56
2021/08/29 02:45:22;;;;;;;6.57;5.88;;;24.90;58.00;;;;;;4166275;28;20061;-54
2021/08/29 02:47:25;;;;;;;7.38;5.72;;;24.90;58.10;;;;;;4166444;28;20052;-56
2021/08/29 02:49:27;;;;;;;6.72;5.95;;;24.90;58.40;;;;;;4166347;28;20042;-57
2021/08/29 02:51:30;;;;;;;10.15;6.00;;;24.90;58.10;;;;;;4166377;28;20045;-56
2021/08/29 02:53:32;;;;;;;8.10;6.03;;;24.80;58.60;;;;;;4166286;28;20449;-57
2021/08/29 02:55:34;;;;;;;6.88;5.68;;;24.90;58.40;;;;;;4166292;28;20052;-57
2021/08/29 02:57:37;;;;;;;9.38;6.15;;;24.90;58.00;;;;;;4166389;28;20098;-57
2021/08/29 02:59:39;;;;;;;7.65;5.72;;;24.90;58.00;;;;;;4166450;28;20320;-57
2021/08/29 03:01:42;;;;;;;9.52;5.68;;;24.90;58.20;;;;;;4166081;28;20082;-56
2021/08/29 03:03:45;;;;;;;8.40;6.15;;;25.00;58.10;;;;;;4166013;28;20042;-57
2021/08/29 03:05:47;;;;;;;7.22;4.57;;;25.00;58.20;;;;;;4166049;28;20049;-57
2021/08/29 03:07:49;;;;;;;8.15;5.18;;;25.00;57.80;;;;;;4165984;28;20042;-57
2021/08/29 03:09:52;;;;;;;6.47;4.82;;;24.90;58.20;;;;;;4166250;28;20042;-57
2021/08/29 03:11:54;;;;;;;6.82;5.47;;;24.90;58.20;;;;;;4166212;28;20080;-58
2021/08/29 03:13:57;;;;;;;6.35;5.15;;;24.90;58.20;;;;;;4166062;28;20098;-58
2021/08/29 03:15:59;;;;;;;6.53;5.55;;;24.90;58.00;;;;;;4165996;28;20102;-58
2021/08/29 03:18:01;;;;;;;9.10;5.75;;;25.00;58.40;;;;;;4165694;28;20045;-58
2021/08/29 03:20:07;;;;;;;6.30;5.35;;;25.00;57.90;;;;;;4165935;28;20053;-56
2021/08/29 03:22:10;;;;;;;6.30;5.22;;;25.10;57.70;;;;;;4165970;28;20136;-55
2021/08/29 03:24:12;;;;;;;6.57;5.07;;;24.90;58.00;;;;;;4166026;28;20045;-53
2021/08/29 03:26:15;;;;;;;7.72;5.05;;;25.00;58.40;;;;;;4165936;28;20080;-56
2021/08/29 03:28:17;;;;;;;11.57;5.35;;;25.00;58.00;;;;;;4164973;28;20046;-54
2021/08/29 03:30:19;;;;;;;8.93;5.80;;;25.00;57.80;;;;;;4165618;28;20178;-56
2021/08/29 03:32:23;;;;;;;7.05;4.78;;;25.10;57.80;;;;;;4165576;28;20041;-57
2021/08/29 03:34:26;;;;;;;9.23;4.78;;;25.00;58.00;;;;;;4165494;28;20102;-56
2021/08/29 03:36:31;;;;;;;7.30;5.67;;;25.00;58.00;;;;;;4165650;28;20053;-57
2021/08/29 03:38:33;;;;;;;5.60;5.00;;;25.00;58.10;;;;;;4165583;28;20106;-57
2021/08/29 03:40:38;;;;;;;7.88;5.18;;;25.00;57.90;;;;;;4165427;28;20106;-57
2021/08/29 03:42:42;;;;;;;10.55;4.88;;;25.00;57.80;;;;;;4165223;28;20110;-57
2021/08/29 03:44:44;;;;;;;7.18;4.97;;;25.00;58.00;;;;;;4165238;28;20141;-57
2021/08/29 03:46:46;;;;;;;8.27;5.28;;;25.10;57.90;;;;;;4165124;28;20076;-57
2021/08/29 03:48:49;;;;;;;5.95;5.00;;;25.20;58.00;;;;;;4165135;28;20102;-57
2021/08/29 03:50:52;;;;;;;6.53;4.50;;;25.10;57.80;;;;;;4165224;28;20069;-56
2021/08/29 03:52:56;;;;;;;5.45;4.95;;;25.10;58.10;;;;;;4165280;28;20045;-55
2021/08/29 03:54:58;;;;;;;9.55;5.47;;;25.10;57.70;;;;;;4165262;28;20088;-56
2021/08/29 03:57:00;;;;;;;6.15;5.55;;;25.10;57.60;;;;;;4165078;28;20109;-56
2021/08/29 03:59:03;;;;;;;5.72;4.40;;;25.00;58.00;;;;;;4165228;28;20046;-56
2021/08/29 04:01:05;;;;;;;5.32;4.80;;;25.00;57.90;;;;;;4165155;28;20056;-57
2021/08/29 04:03:07;;;;;;;7.53;5.88;;;25.10;57.80;;;;;;4164964;28;20041;-57
2021/08/29 04:05:10;;;;;;;7.95;5.72;;;25.10;57.80;;;;;;4165235;28;20046;-57
2021/08/29 04:07:15;;;;;;;6.53;5.50;;;25.10;57.80;;;;;;4165206;28;20049;-57
2021/08/29 04:09:20;;;;;;;7.15;5.40;;;25.00;57.80;;;;;;4165355;28;20094;-57
2021/08/29 04:11:27;;;;;;;6.35;4.70;;;25.00;58.00;;;;;;4165136;28;20071;-57
2021/08/29 04:13:31;;;;;;;6.10;5.05;;;25.00;58.20;;;;;;4165187;28;20069;-57
2021/08/29 04:15:36;;;;;;;5.63;4.88;;;25.00;58.10;;;;;;4165043;28;20098;-57
2021/08/29 04:17:38;;;;;;;6.00;5.00;;;25.00;57.90;;;;;;4164858;28;20049;-56
2021/08/29 04:19:42;;;;;;;8.02;4.65;;;25.00;57.90;;;;;;4164986;28;20049;-57
2021/08/29 04:21:44;;;;;;;6.72;4.95;;;24.90;58.40;;;;;;4164869;28;20081;-57
2021/08/29 04:23:46;;;;;;;6.65;5.03;;;25.00;58.30;;;;;;4164747;28;20076;-57
2021/08/29 04:25:48;;;;;;;5.60;4.68;;;25.00;58.20;;;;;;4164753;28;20042;-57
2021/08/29 04:27:50;;;;;;;6.50;5.32;;;24.90;58.20;;;;;;4164763;28;20132;-57
2021/08/29 04:29:53;;;;;;;7.60;4.97;;;25.00;58.00;;;;;;4164666;28;20038;-57
2021/08/29 04:31:58;;;;;;;10.93;6.38;;;25.00;58.10;;;;;;4164587;28;20121;-57
2021/08/29 04:34:08;;;;;;;;;;;24.90;58.20;;;;;;4165252;28;20053;-57
2021/08/29 04:36:10;;;;;;;6.28;5.10;;;25.00;58.00;;;;;;4164836;28;19925;-57
2021/08/29 04:38:12;;;;;;;6.63;5.75;;;24.90;58.60;;;;;;4164799;28;20084;-56
2021/08/29 04:40:15;;;;;;;7.53;6.38;;;25.00;58.20;;;;;;4162882;28;20050;-57
2021/08/29 04:42:17;;;;;;;6.47;5.82;;;25.00;58.00;;;;;;4163867;28;20152;-57
2021/08/29 04:44:19;;;;;;;7.03;5.85;;;24.90;58.40;;;;;;4164687;28;20066;-57
2021/08/29 04:46:21;;;;;;;9.60;5.90;;;24.90;58.70;;;;;;4164224;28;20060;-57
2021/08/29 04:48:23;;;;;;;8.25;6.47;;;24.90;58.70;;;;;;4164504;28;20057;-57
2021/08/29 04:50:25;;;;;;;12.25;6.15;;;24.90;58.80;;;;;;4164472;28;20097;-57
2021/08/29 04:52:27;;;;;;;9.20;6.85;;;24.90;58.80;;;;;;4164578;28;20042;-55
2021/08/29 04:54:29;;;;;;;7.10;6.18;;;24.90;58.60;;;;;;4164676;28;20541;-57
2021/08/29 04:56:31;;;;;;;8.38;6.28;;;24.90;58.90;;;;;;4164487;28;20037;-56
2021/08/29 04:58:33;;;;;;;8.43;5.97;;;24.80;58.70;;;;;;4164526;28;20056;-57
2021/08/29 05:00:35;;;;;;;8.48;6.63;;;24.80;58.80;;;;;;4163505;28;20064;-55
2021/08/29 05:02:41;;;;;;;10.35;5.80;;;24.80;58.90;;;;;;4164235;28;20045;-56
2021/08/29 05:04:43;;;;;;;12.80;5.93;;;24.90;58.90;;;;;;4164432;28;20052;-57
2021/08/29 05:06:45;;;;;;;7.60;6.22;;;24.90;58.60;;;;;;4163577;28;20050;-56
2021/08/29 05:08:47;;;;;;;8.48;7.05;;;24.80;58.90;;;;;;4164426;28;20129;-57
2021/08/29 05:10:49;;;;;;;8.23;6.25;;;24.70;59.10;;;;;;4164199;28;20046;-55
2021/08/29 05:12:52;;;;;;;8.35;6.38;;;24.70;59.20;;;;;;4164228;28;20062;-57
2021/08/29 05:14:54;;;;;;;6.35;5.57;;;24.70;59.00;;;;;;4164300;28;20048;-56
2021/08/29 05:16:55;;;;;;;6.70;5.32;;;24.70;59.10;;;;;;4164362;28;20093;-57
2021/08/29 05:18:57;;;;;;;7.13;5.40;;;24.80;58.90;;;;;;4164442;28;20070;-55
2021/08/29 05:20:59;;;;;;;11.32;5.35;;;24.90;58.90;;;;;;4164504;28;20668;-57
2021/08/29 05:23:07;;;;;;;10.23;5.30;;;24.90;59.30;;;;;;4164287;28;20073;-57
2021/08/29 05:25:09;;;;;;;5.95;4.63;;;25.00;58.90;;;;;;4164425;28;20053;-57
2021/08/29 05:27:11;;;;;;;7.13;4.60;;;25.10;58.50;;;;;;4164243;28;20060;-57
2021/08/29 05:29:13;;;;;;;6.03;4.43;;;25.20;58.30;;;;;;4164212;28;20073;-57
2021/08/29 05:31:15;;;;;;;10.65;5.60;;;25.30;58.10;;;;;;4163952;28;20105;-57
2021/08/29 05:33:17;;;;;;;10.73;5.50;;;25.30;58.00;;;;;;4164134;28;20046;-57
2021/08/29 05:35:19;;;;;;;8.10;4.45;;;25.30;57.90;;;;;;4164128;28;20098;-58
2021/08/29 05:37:21;;;;;;;6.90;5.45;;;25.40;57.80;;;;;;4164119;28;20102;-58
2021/08/29 05:39:23;;;;;;;10.60;5.32;;;25.40;57.70;;;;;;4163993;28;20050;-57
2021/08/29 05:41:25;;;;;;;7.82;5.07;;;25.40;57.70;;;;;;4164238;28;20053;-57
2021/08/29 05:43:27;;;;;;;6.10;5.03;;;25.40;57.60;;;;;;4164158;28;20120;-57
2021/08/29 05:45:29;;;;;;;6.35;4.78;;;25.40;57.60;;;;;;4163873;28;20081;-57
2021/08/29 05:47:31;;;;;;;6.07;4.80;;;25.40;57.60;;;;;;4164086;28;20057;-57
2021/08/29 05:49:33;;;;;;;5.53;4.90;;;25.40;57.60;;;;;;4164021;28;20046;-58
2021/08/29 05:51:35;;;;;;;9.40;4.78;;;25.50;57.50;;;;;;4164744;28;20093;-58
2021/08/29 05:53:37;;;;;;;5.82;4.90;;;25.50;57.50;;;;;;4167453;28;20499;-58
2021/08/29 05:55:39;;;;;;;5.47;4.45;;;25.50;57.50;;;;;;4167126;28;20066;-58
2021/08/29 05:57:41;;;;;;;5.00;4.50;;;25.50;57.50;;;;;;4167110;28;20121;-58
2021/08/29 05:59:43;;;;;;;6.43;4.90;;;25.50;57.50;;;;;;4167080;28;20060;-58
2021/08/29 06:01:45;;;;;;;5.45;4.38;;;25.50;57.50;;;;;;4166925;28;20102;-58
2021/08/29 06:03:51;;;;;;;6.38;4.53;;;25.50;57.50;;;;;;4166098;28;20050;-58
2021/08/29 06:06:00;;;;;;;6.70;5.03;;;25.50;57.40;;;;;;4165216;28;20054;-58
2021/08/29 06:08:03;;;;;;;6.25;4.05;;;25.50;57.40;;;;;;4166402;28;20097;-58
2021/08/29 06:10:05;;;;;;;6.75;4.22;;;25.50;57.40;;;;;;4165828;28;20096;-57
2021/08/29 06:12:07;;;;;;;7.47;4.88;;;25.50;57.40;;;;;;4166914;28;20049;-58
2021/08/29 06:14:09;;;;;;;10.05;5.07;;;25.50;57.40;;;;;;4166913;28;20069;-58
2021/08/29 06:16:11;;;;;;;6.70;4.47;;;25.50;57.40;;;;;;4166475;28;20046;-58
2021/08/29 06:18:13;;;;;;;8.63;5.28;;;25.50;57.40;;;;;;4162212;28;20041;-58
2021/08/29 06:20:15;;;;;;;7.13;4.80;;;25.50;57.40;;;;;;4164220;28;20069;-58
2021/08/29 06:22:17;;;;;;;8.48;4.82;;;25.50;57.30;;;;;;4162561;28;20072;-58
2021/08/29 06:24:19;;;;;;;6.18;4.85;;;25.60;57.40;;;;;;4165868;28;20046;-58
2021/08/29 06:26:21;;;;;;;5.53;4.75;;;25.60;57.40;;;;;;4165957;28;20050;-58
2021/08/29 06:28:23;;;;;;;6.75;5.15;;;25.60;57.30;;;;;;4163018;28;20046;-58
2021/08/29 06:30:26;;;;;;;5.18;4.53;;;25.60;57.30;;;;;;4160459;28;20042;-58
2021/08/29 06:32:28;;;;;;;7.15;5.43;;;25.50;57.40;;;;;;4162572;28;20045;-58
2021/08/29 06:34:30;;;;;;;30.55;7.40;;;25.50;57.40;;;;;;4159495;28;20042;-58
2021/08/29 06:36:33;;;;;;;20.90;7.28;;;25.50;57.00;;;;;;4152442;28;20046;-58
2021/08/29 06:38:35;;;;;;;34.53;6.78;;;25.00;58.00;;;;;;4162147;28;20077;-58
2021/08/29 06:40:37;;;;;;;17.88;6.20;;;24.70;59.00;;;;;;4166221;28;20037;-56
2021/08/29 06:42:41;;;;;;;18.15;6.53;;;24.70;59.60;;;;;;4166239;28;20069;-54
2021/08/29 06:44:43;;;;;;;23.77;6.43;;;24.80;59.40;;;;;;4166415;28;20117;-58
2021/08/29 06:46:45;;;;;;;15.90;6.75;;;24.80;59.50;;;;;;4166053;28;20050;-57
2021/08/29 06:48:47;;;;;;;20.85;6.05;;;25.00;59.00;;;;;;4166397;28;20054;-59
2021/08/29 06:50:49;;;;;;;19.42;5.20;;;25.10;59.00;;;;;;4166458;28;20117;-58
2021/08/29 06:52:51;;;;;;;16.17;5.93;;;25.10;58.60;;;;;;4165505;28;20067;-58
2021/08/29 06:54:53;;;;;;;25.20;5.65;;;25.20;58.30;;;;;;4166025;28;20046;-58
2021/08/29 06:56:55;;;;;;;24.83;6.60;;;25.30;58.00;;;;;;4166311;28;20046;-58
2021/08/29 06:58:58;;;;;;;7.40;6.13;;;25.30;57.90;;;;;;4165185;28;20045;-56
2021/08/29 07:01:00;;;;;;;9.75;6.30;;;25.20;58.00;;;;;;4164737;28;20105;-57
2021/08/29 07:03:02;;;;;;;11.55;6.45;;;24.90;58.80;;;;;;4164613;28;20041;-57
2021/08/29 07:05:05;;;;;;;13.13;6.47;;;24.70;59.20;;;;;;4162296;28;20042;-57
2021/08/29 07:07:08;;;;;;;13.27;6.93;;;24.60;59.50;;;;;;4162894;28;20065;-55
2021/08/29 07:09:10;;;;;;;12.52;6.90;;;24.60;59.70;;;;;;4164020;28;20093;-50
2021/08/29 07:11:12;;;;;;;17.08;8.45;;;24.70;59.80;;;;;;4166453;28;20048;-49
2021/08/29 07:13:14;;;;;;;23.05;9.98;;;24.90;59.60;;;;;;4165872;28;20860;-46
2021/08/29 07:15:16;;;;;;;24.38;10.98;;;24.90;59.80;;;;;;4165933;28;20050;-49
2021/08/29 07:17:18;;;;;;;18.52;9.77;;;24.90;60.70;;;;;;4166382;28;20061;-47
2021/08/29 07:19:20;;;;;;;22.65;10.25;;;24.90;60.20;;;;;;4165843;28;20121;-47
2021/08/29 07:21:22;;;;;;;17.65;10.60;;;25.00;61.40;;;;;;4166013;28;20052;-46
2021/08/29 07:23:27;;;;;;;21.15;10.32;;;25.00;61.80;;;;;;4165539;28;20071;-47
2021/08/29 07:25:29;;;;;;;39.10;9.85;;;25.00;60.80;;;;;;4165953;28;20097;-49
2021/08/29 07:27:31;;;;;;;29.75;9.38;;;25.10;61.20;;;;;;4165742;28;20073;-48
2021/08/29 07:29:33;;;;;;;28.58;9.63;;;25.00;62.00;;;;;;4159863;28;20061;-50
2021/08/29 07:31:35;;;;;;;30.15;13.25;;;25.00;60.60;;;;;;4163292;28;20064;-46
2021/08/29 07:33:38;;;;;;;29.33;9.23;;;25.20;60.20;;;;;;4163184;28;20042;-47
2021/08/29 07:35:40;;;;;;;20.77;8.10;;;25.20;59.70;;;;;;4162311;28;20069;-49
2021/08/29 07:37:43;;;;;;;20.25;8.80;;;25.20;61.20;;;;;;4164112;28;20853;-48
2021/08/29 07:39:45;;;;;;;20.92;8.45;;;25.30;60.30;;;;;;4165148;28;20044;-48
2021/08/29 07:41:47;;;;;;;14.73;8.02;;;25.30;60.60;;;;;;4165393;28;20057;-48
2021/08/29 07:43:49;;;;;;;23.58;8.48;;;25.30;61.10;;;;;;4163590;28;20048;-51
2021/08/29 07:45:51;;;;;;;18.42;8.38;;;25.30;61.10;;;;;;4165242;28;20105;-56
2021/08/29 07:47:53;;;;;;;26.85;9.38;;;25.30;61.70;;;;;;4165591;28;20080;-53
2021/08/29 07:49:55;;;;;;;19.15;8.50;;;25.20;61.40;;;;;;4165441;28;20045;-56
2021/08/29 07:51:57;;;;;;;24.38;10.38;;;25.20;61.50;;;;;;4165779;28;20049;-50
2021/08/29 07:53:59;;;;;;;13.68;8.93;;;25.30;62.50;;;;;;4165260;28;20038;-46
2021/08/29 07:56:01;;;;;;;14.00;7.65;;;25.30;63.50;;;;;;4165228;28;20780;-52
2021/08/29 07:58:03;;;;;;;19.05;9.45;;;25.30;62.20;;;;;;4163346;28;20038;-50
2021/08/29 08:00:06;;;;;;;15.57;8.10;;;25.10;62.10;;;;;;4164269;28;20049;-56
2021/08/29 08:02:08;;;;;;;18.88;8.95;;;25.20;62.40;;;;;;4165497;28;20053;-53
2021/08/29 08:04:11;;;;;;;18.95;7.85;;;25.30;62.50;;;;;;4165608;28;20050;-52
2021/08/29 08:06:13;;;;;;;18.02;9.30;;;25.40;62.10;;;;;;4165813;28;20060;-54
2021/08/29 08:08:15;;;;;;;14.52;8.50;;;25.30;64.80;;;;;;4165756;28;20097;-53
2021/08/29 08:10:17;;;;;;;15.05;8.88;;;25.30;62.30;;;;;;4165465;28;20079;-55
2021/08/29 08:12:19;;;;;;;14.02;9.18;;;25.40;63.20;;;;;;4165496;28;20093;-55
2021/08/29 08:14:21;;;;;;;14.68;10.20;;;25.40;64.80;;;;;;4165206;28;20101;-56
2021/08/29 08:16:23;;;;;;;12.23;8.50;;;25.20;64.50;;;;;;4165742;28;20050;-55
2021/08/29 08:18:25;;;;;;;16.65;8.07;;;25.20;63.50;;;;;;4165796;28;20096;-55
2021/08/29 08:20:27;;;;;;;12.98;8.52;;;25.30;64.60;;;;;;4165733;28;20105;-56
2021/08/29 08:22:29;;;;;;;12.55;8.02;;;25.30;63.50;;;;;;4165724;28;20052;-56
2021/08/29 08:24:31;;;;;;;11.13;6.93;;;25.30;63.00;;;;;;4166226;28;20106;-56
2021/08/29 08:26:33;;;;;;;9.60;7.18;;;25.40;63.30;;;;;;4166124;28;20113;-56
2021/08/29 08:28:35;;;;;;;15.25;7.35;;;25.50;62.90;;;;;;4165814;28;20100;-53
2021/08/29 08:30:37;;;;;;;17.98;8.27;;;25.40;63.70;;;;;;4166511;28;20057;-48
2021/08/29 08:32:40;;;;;;;21.30;7.43;;;25.60;63.60;;;;;;4166496;28;20057;-53
2021/08/29 08:34:42;;;;;;;17.83;7.75;;;25.60;62.80;;;;;;4166630;28;20093;-48
2021/08/29 08:36:44;;;;;;;19.15;7.35;;;25.90;62.30;;;;;;4166856;28;20052;-46
2021/08/29 08:38:46;;;;;;;16.15;7.68;;;25.80;62.20;;;;;;4166718;28;20068;-51
2021/08/29 08:40:48;;;;;;;12.10;7.47;;;25.70;62.90;;;;;;4166858;28;20057;-50
2021/08/29 08:42:51;;;;;;;17.10;7.45;;;25.70;63.00;;;;;;4166783;28;20392;-49
2021/08/29 08:44:53;;;;;;;14.90;7.38;;;25.50;62.70;;;;;;4166551;28;20038;-50
2021/08/29 08:46:56;;;;;;;13.18;7.32;;;25.40;63.10;;;;;;4166675;28;20037;-51
2021/08/29 08:49:01;;;;;;;14.00;7.53;;;25.50;63.00;;;;;;4166665;28;20076;-48
2021/08/29 08:51:08;;;;;;;17.17;8.60;;;25.40;63.20;;;;;;4166698;28;20105;-50
2021/08/29 08:53:11;;;;;;;15.70;7.85;;;25.30;62.80;;;;;;4166691;28;20046;-50
2021/08/29 08:55:13;;;;;;;12.70;8.23;;;25.30;63.20;;;;;;4166567;28;20061;-49
2021/08/29 08:57:17;;;;;;;9.85;7.70;;;25.40;63.40;;;;;;4166733;28;20042;-48
2021/08/29 08:59:19;;;;;;;13.65;7.85;;;25.40;63.50;;;;;;4166542;28;20479;-49
2021/08/29 09:01:21;;;;;;;13.63;7.63;;;25.30;62.80;;;;;;4166559;28;20052;-48
2021/08/29 09:03:24;;;;;;;9.73;7.40;;;25.30;62.80;;;;;;4166092;28;20046;-49
2021/08/29 09:05:27;;;;;;;14.38;8.40;;;25.40;62.60;;;;;;4166054;28;20098;-50
2021/08/29 09:07:29;;;;;;;13.10;7.82;;;25.40;62.80;;;;;;4165545;28;20041;-47
2021/08/29 09:09:33;;;;;;;16.10;8.00;;;25.40;62.20;;;;;;4164932;28;20071;-44
2021/08/29 09:11:35;;;;;;;15.75;7.93;;;25.50;62.90;;;;;;4164875;28;20098;-48
2021/08/29 09:13:46;;;;;;;14.38;8.23;;;25.40;63.60;;;;;;4165112;28;20034;-46
2021/08/29 09:15:48;;;;;;;17.23;7.43;;;25.40;63.30;;;;;;4164568;28;20093;-51
2021/08/29 09:17:50;;;;;;;20.17;7.28;;;25.40;63.40;;;;;;4150505;28;20070;-50
2021/08/29 09:20:13;;;;;;;15.65;7.63;;;25.40;63.70;;;;;;4147130;28;20077;-49
2021/08/29 09:22:26;;;;;;;14.80;8.05;;;25.40;63.30;;;;;;4146178;28;20053;-48
2021/08/29 09:24:30;;;;;;;16.70;7.80;;;25.50;63.30;;;;;;4147646;28;20107;-51
2021/08/29 09:26:32;;;;;;;11.40;8.00;;;25.50;63.30;;;;;;4148703;28;20088;-50
2021/08/29 09:28:34;;;;;;;12.27;7.82;;;25.40;63.30;;;;;;4151597;28;20050;-51
2021/08/29 09:30:42;;;;;;;13.30;8.18;;;25.40;63.20;;;;;;4151545;28;20101;-49
2021/08/29 09:32:57;;;;;;;17.05;9.18;;;25.40;62.90;;;;;;4150751;28;20074;-48
2021/08/29 09:35:02;;;;;;;12.02;7.97;;;25.40;63.60;;;;;;4151430;28;20077;-51
2021/08/29 09:37:04;;;;;;;13.02;7.85;;;25.40;63.60;;;;;;4151435;28;20077;-51
2021/08/29 09:39:20;;;;;;;15.02;8.25;;;25.30;63.50;;;;;;4151460;28;20533;-52
2021/08/29 09:41:23;;;;;;;11.80;7.82;;;25.40;63.40;;;;;;4151240;28;20047;-49
2021/08/29 09:43:38;;;;;;;13.95;8.75;;;25.40;63.30;;;;;;4151246;28;20049;-47
2021/08/29 09:45:43;;;;;;;15.50;7.72;;;25.40;63.10;;;;;;4151150;28;20093;-50
2021/08/29 09:47:45;;;;;;;13.18;8.77;;;25.40;63.20;;;;;;4151396;28;20531;-49
2021/08/29 09:49:50;;;;;;;9.82;7.95;;;25.40;63.30;;;;;;4151119;28;20042;-53
2021/08/29 09:51:55;;;;;;;12.52;8.75;;;25.40;62.90;;;;;;4150959;28;20046;-51
2021/08/29 09:53:57;;;;;;;12.18;7.72;;;25.40;63.40;;;;;;4150071;28;20046;-54
2021/08/29 09:56:16;;;;;;;14.02;8.57;;;25.40;62.50;;;;;;4151182;28;20098;-47
2021/08/29 09:58:22;;;;;;;8.52;7.45;;;25.40;62.80;;;;;;4151152;28;20066;-49
2021/08/29 10:00:24;;;;;;;9.82;7.78;;;25.40;63.30;;;;;;4151242;28;20046;-47
2021/08/29 10:02:30;;;;;;;8.90;7.70;;;25.40;62.90;;;;;;4151092;28;20046;-48
2021/08/29 10:04:32;;;;;;;12.55;7.68;;;25.40;63.20;;;;;;4150917;28;20077;-49
2021/08/29 10:06:35;;;;;;;10.82;8.23;;;25.30;63.60;;;;;;4150974;28;20089;-50
2021/08/29 10:08:45;;;;;;;13.48;8.05;;;25.30;63.60;;;;;;4150804;28;20370;-49
2021/08/29 10:10:48;;;;;;;8.73;7.22;;;25.30;63.40;;;;;;4150695;28;20046;-50
2021/08/29 10:12:51;;;;;;;10.02;7.75;;;25.30;63.30;;;;;;4150585;28;20047;-48
2021/08/29 10:14:55;;;;;;;9.63;7.38;;;25.30;63.10;;;;;;4150874;28;20081;-48
2021/08/29 10:16:58;;;;;;;8.95;7.45;;;25.40;63.10;;;;;;4150695;28;20106;-50
2021/08/29 10:19:00;;;;;;;13.02;8.82;;;25.30;63.60;;;;;;4150754;28;20050;-47
2021/08/29 10:21:03;;;;;;;10.65;7.72;;;25.30;63.30;;;;;;4150775;28;20073;-49
2021/08/29 10:23:05;;;;;;;12.70;9.50;;;25.40;63.10;;;;;;4150822;28;20042;-52
2021/08/29 10:25:10;;;;;;;8.45;7.60;;;25.40;62.80;;;;;;4150714;28;20157;-49
2021/08/29 10:27:17;;;;;;;11.25;8.57;;;25.30;63.20;;;;;;4150694;28;20050;-53
2021/08/29 10:29:28;;;;;;;10.07;8.27;;;25.40;63.10;;;;;;4150422;28;20069;-48
2021/08/29 10:31:36;;;;;;;11.18;8.07;;;25.40;62.90;;;;;;4150725;28;20043;-48
2021/08/29 10:33:47;;;;;;;12.93;8.98;;;25.30;63.20;;;;;;4150520;28;20047;-47
2021/08/29 10:35:50;;;;;;;10.07;8.15;;;25.30;63.50;;;;;;4150624;28;20073;-49
2021/08/29 10:37:52;;;;;;;10.52;8.05;;;25.30;63.30;;;;;;4150575;28;20038;-51
2021/08/29 10:39:54;;;;;;;11.02;7.80;;;25.30;63.40;;;;;;4150637;28;20070;-52